Terminal Aerodrome Forecast
Issued by NWS

Home | Current Version | Previous Version | Text Only | Print | Product List | Glossary Off
Versions: 1 2 3 4 5 6 7 8 9 10 11 12 13 14 15 16 17 18

000
FTUS43 KGRB 130500 AAB
TAFCWA
TAF AMD
KCWA 130504Z 1305/1324 04007KT 3SM BR OVC003
      TEMPO 1305/1307 1SM BR
     FM130700 02004KT 1SM BR OVC003
      TEMPO 1307/1311 1/2SM FG
     FM131500 35008KT P6SM BKN011
     FM131900 35009KT P6SM BKN024
     FM132100 35008KT 4SM -RA BR BKN017
      AMD LTD TO CLD VIS AND WIND TIL 131100=

USA.gov is the U.S. government's official web portal to all federal, state and local government web resources and services.